Latest Weather Observations for Batchelor

IDD60901

Issued at 10:01 am CST Monday 21 August 2017 (issued every 10 minutes, with the page automatically refreshed every 10 minutes)

About weather observations | Map of Darwin area stations | Latest observations for Darwin area | Other Formats
Station Details ID: 014272 Name: BATCHELOR AIRPORT Lat: -13.05 Lon: 131.03 Height: 104.0 m
Data from the previous 72 hours. | See also: Recent months at Batchelor
Date/Time
CST
Temp
°C
App
Temp
°C
Dew
Point
°C
Rel
Hum
%
Delta-T
°C
Wind Press
QNH
hPa
Press
MSL
hPa
Rain since
9am
mm
Dir  Spd
km/h
Gust
km/h
Spd
kts
Gust
kts
21/10:00am 28.2 30.2 19.2 58 5.8 N 7 11 4 6 1014.8 1014.2 0.0
21/09:30am 26.9 28.7 18.7 60 5.3 N 7 13 4 7 1014.7 1014.1 0.0
21/09:00am 26.2 29.5 20.8 72 3.6 N 4 7 2 4 1014.7 1014.1 0.0
21/08:30am 24.6 28.3 20.7 79 2.6 N 2 6 1 3 1014.5 1013.9 0.0
21/08:00am 22.1 26.0 20.4 90 1.1 CALM 0 0 0 0 1014.2 1013.6 0.0
21/07:30am 19.8 22.9 18.6 93 0.8 CALM 0 0 0 0 1014.1 1013.5 0.0
21/07:00am 19.3 22.2 18.3 94 0.6 CALM 0 0 0 0 1013.7 1013.1 0.0
21/06:30am 19.6 22.3 18.6 94 0.6 N 2 6 1 3 1013.4 1012.8 0.0
21/06:00am 19.7 22.1 18.7 94 0.6 N 4 4 2 2 1012.9 1012.3 0.0
21/05:30am 18.7 21.1 17.0 90 1.0 CALM 0 0 0 0 1012.6 1012.1 0.0
21/05:00am 19.2 21.7 17.2 88 1.2 CALM 0 0 0 0 1012.2 1011.7 0.0
21/04:30am 20.0 22.9 18.1 89 1.2 CALM 0 2 0 1 1012.2 1011.7 0.0
21/04:00am 20.9 24.0 19.6 92 0.8 N 2 4 1 2 1012.3 1011.8 0.0
21/03:30am 20.8 23.9 19.5 92 0.8 SW 2 4 1 2 1012.4 1011.9 0.0
21/03:00am 20.5 23.7 18.8 90 1.1 CALM 0 0 0 0 1012.5 1012.0 0.0
21/02:30am 20.8 24.0 18.9 89 1.2 CALM 0 0 0 0 1012.5 1012.0 0.0
21/02:00am 21.1 24.4 19.2 89 1.2 CALM 0 0 0 0 1012.6 1012.1 0.0
21/01:30am 21.2 24.6 19.3 89 1.2 CALM 0 2 0 1 1012.6 1012.1 0.0
21/01:00am 21.3 23.8 19.0 87 1.5 SW 4 6 2 3 1012.8 1012.2 0.0
21/12:30am 21.4 23.9 18.2 82 2.0 SW 2 4 1 2 1013.0 1012.4 0.0
21/12:00am 22.4 25.3 19.8 85 1.7 SW 4 6 2 3 1013.0 1012.4 0.0
 
Date/Time
CST
Temp
°C
App
Temp
°C
Dew
Point
°C
Rel
Hum
%
Delta-T
°C
Wind Press
QNH
hPa
Press
MSL
hPa
Rain since
9am
mm
Dir  Spd
km/h
Gust
km/h
Spd
kts
Gust
kts
20/11:30pm 22.0 24.1 18.0 78 2.5 WNW 4 4 2 2 1013.0 1012.4 0.0
20/11:00pm 23.2 25.8 19.2 78 2.6 WNW 4 6 2 3 1013.0 1012.4 0.0
20/10:30pm 23.6 26.5 19.1 76 2.9 WNW 2 4 1 2 1013.0 1012.4 0.0
20/10:00pm 24.2 26.9 18.6 71 3.6 WNW 2 6 1 3 1012.9 1012.3 0.0
20/09:30pm 24.7 27.2 19.1 71 3.6 WNW 4 6 2 3 1012.6 1012.1 0.0
20/09:00pm 25.4 27.6 19.1 68 4.1 W 6 11 3 6 1012.5 1012.0 0.0
20/08:30pm 26.2 28.2 19.1 65 4.6 W 7 11 4 6 1012.2 1011.7 0.0
20/08:00pm 26.7 28.8 19.3 64 4.8 WSW 7 13 4 7 1012.0 1011.5 0.0
20/07:30pm 27.5 28.9 19.6 62 5.2 WNW 11 24 6 13 1011.6 1011.1 0.0
20/07:00pm 28.8 27.8 7.4 26 11.6 SE 2 7 1 4 1011.1 1010.6 0.0
20/06:30pm 31.7 29.5 6.0 20 13.8 SE 7 9 4 5 1010.6 1010.1 0.0
20/06:00pm 33.7 30.9 5.3 17 15.2 SE 9 13 5 7 1010.3 1009.8 0.0
20/05:30pm 34.7 32.1 4.3 15 16.1 E 7 11 4 6 1010.1 1009.6 0.0
20/05:00pm 35.1 30.9 3.6 14 16.6 SE 15 24 8 13 1009.9 1009.4 0.0
20/04:30pm 35.1 32.2 4.6 15 16.3 E 9 17 5 9 1009.9 1009.4 0.0
20/04:00pm 34.6 31.6 6.0 17 15.6 ENE 11 17 6 9 1010.2 1009.7 0.0
20/03:30pm 35.1 32.0 7.2 18 15.5 E 13 28 7 15 1010.5 1010.0 0.0
20/03:00pm 34.9 31.8 7.1 18 15.4 E 13 24 7 13 1010.9 1010.4 0.0
20/02:30pm 34.6 30.2 7.6 19 15.1 ESE 20 32 11 17 1011.4 1010.9 0.0
20/02:00pm 34.5 30.7 7.5 19 15.0 ESE 17 26 9 14 1011.9 1011.4 0.0
20/01:30pm 34.4 31.5 9.6 22 14.3 ENE 15 28 8 15 1012.3 1011.8 0.0
20/01:00pm 34.0 30.8 9.9 23 13.9 ENE 17 28 9 15 1012.9 1012.3 0.0
20/12:30pm 33.1 30.5 12.1 27 12.5 E 17 28 9 15 1013.5 1012.9 0.0
20/12:00pm 32.6 29.5 12.3 29 12.1 E 20 35 11 19 1014.1 1013.5 0.0
20/11:30am 30.6 30.4 16.6 43 8.8 ENE 13 26 7 14 1014.7 1014.1 0.0
20/11:00am 29.5 30.2 18.9 53 6.9 E 13 20 7 11 1015.3 1014.7 0.0
20/10:30am 28.4 30.6 19.6 59 5.7 E 7 13 4 7 1015.4 1014.8 0.0
20/10:00am 26.5 30.2 21.5 74 3.3 ESE 4 7 2 4 1015.8 1015.2 0.0
20/09:30am 23.6 27.7 22.2 92 0.9 NE 4 6 2 3 1015.7 1015.1 0.0
20/09:00am 22.6 26.7 22.3 98 0.2 E 4 6 2 3 1015.6 1015.0 0.0
20/08:30am 22.1 26.8 21.9 99 0.1 CALM 0 4 0 2 1015.4 1014.8 0.0
20/08:00am 22.1 26.8 21.9 99 0.1 CALM 0 4 0 2 1015.1 1014.5 0.0
20/07:30am 21.5 25.5 21.3 99 0.1 N 2 4 1 2 1014.9 1014.3 0.0
20/07:00am 21.0 24.3 20.7 98 0.2 N 4 6 2 3 1014.5 1013.9 0.0
20/06:30am 20.8 24.4 20.5 98 0.2 SE 2 2 1 1 1014.2 1013.6 0.0
20/06:00am 20.7 23.9 20.4 98 0.2 SE 4 4 2 2 1013.7 1013.1 0.0
20/05:30am 19.6 22.8 18.9 96 0.4 CALM 0 0 0 0 1013.4 1012.8 0.0
20/05:00am 19.5 22.5 18.5 94 0.6 CALM 0 0 0 0 1013.2 1012.6 0.0
20/04:30am 19.3 22.0 17.8 91 0.9 CALM 0 0 0 0 1013.0 1012.4 0.0
20/04:00am 19.9 23.0 18.6 92 0.8 CALM 0 0 0 0 1013.1 1012.5 0.0
20/03:30am 19.6 22.3 17.7 89 1.2 CALM 0 0 0 0 1013.0 1012.4 0.0
20/03:00am 20.7 24.2 19.5 93 0.8 CALM 0 0 0 0 1013.1 1012.5 0.0
20/02:30am 20.7 24.0 19.2 91 1.0 CALM 0 0 0 0 1013.3 1012.7 0.0
20/02:00am 21.1 24.6 19.6 91 1.0 CALM 0 0 0 0 1013.6 1013.0 0.0
20/01:30am 21.3 24.6 19.0 87 1.5 CALM 0 4 0 2 1013.8 1013.2 0.0
20/01:00am 22.3 25.9 20.6 90 1.1 SE 2 4 1 2 1014.1 1013.5 0.0
20/12:30am 22.6 25.9 20.7 89 1.2 SE 4 6 2 3 1014.1 1013.5 0.0
20/12:00am 22.9 26.0 20.2 85 1.8 NE 4 6 2 3 1014.1 1013.5 0.0
 
Date/Time
CST
Temp
°C
App
Temp
°C
Dew
Point
°C
Rel
Hum
%
Delta-T
°C
Wind Press
QNH
hPa
Press
MSL
hPa
Rain since
9am
mm
Dir  Spd
km/h
Gust
km/h
Spd
kts
Gust
kts
19/11:30pm 23.5 26.5 20.8 85 1.8 WNW 6 9 3 5 1013.9 1013.3 0.0
19/11:00pm 24.0 27.1 20.3 80 2.4 NW 4 6 2 3 1014.0 1013.4 0.0
19/10:30pm 24.5 27.8 20.8 80 2.4 WNW 4 6 2 3 1014.0 1013.4 0.0
19/10:00pm 25.0 28.3 20.7 77 2.8 NW 4 6 2 3 1013.8 1013.2 0.0
19/09:30pm 25.7 28.7 20.9 75 3.2 W 6 9 3 5 1013.6 1013.0 0.0
19/09:00pm 26.2 29.2 21.2 74 3.3 W 7 13 4 7 1013.4 1012.8 0.0
19/08:30pm 26.8 29.7 21.1 71 3.8 WNW 7 13 4 7 1013.1 1012.5 0.0
19/08:00pm 27.3 30.0 20.6 67 4.4 WNW 7 13 4 7 1012.6 1012.1 0.0
19/07:30pm 28.1 29.2 19.6 60 5.6 NW 13 20 7 11 1012.1 1011.6 0.0
19/07:00pm 29.9 29.2 11.4 32 10.7 ESE 6 19 3 10 1011.5 1011.0 0.0
19/06:30pm 32.6 31.1 6.7 20 14.1 ESE 4 9 2 5 1010.8 1010.3 0.0
19/06:00pm 35.2 32.7 6.5 17 15.8 E 9 13 5 7 1010.4 1009.9 0.0
19/05:30pm 35.6 32.2 5.9 16 16.3 E 13 19 7 10 1010.3 1009.8 0.0
19/05:00pm 35.8 32.2 5.1 15 16.6 ESE 13 20 7 11 1010.2 1009.7 0.0
19/04:30pm 35.5 32.1 3.9 14 16.8 E 11 20 6 11 1010.2 1009.7 0.0
19/04:00pm 36.2 32.1 4.5 14 17.0 ENE 15 22 8 12 1010.3 1009.8 0.0
19/03:30pm 36.4 31.2 2.5 12 17.7 ESE 19 32 10 17 1010.5 1010.0 0.0
19/03:00pm 35.7 32.3 6.0 16 16.3 E 13 22 7 12 1010.8 1010.3 0.0
19/02:30pm 36.0 31.5 6.2 16 16.4 ESE 19 30 10 16 1011.4 1010.9 0.0
19/02:00pm 36.3 31.7 6.5 16 16.5 E 20 35 11 19 1012.0 1011.5 0.0
19/01:30pm 35.4 30.6 7.5 18 15.6 E 22 43 12 23 1012.5 1012.0 0.0
19/01:00pm 35.0 30.7 9.4 21 14.7 E 22 33 12 18 1013.2 1012.6 0.0
19/12:30pm 34.7 31.5 11.8 25 13.6 E 20 30 11 16 1013.8 1013.2 0.0
19/12:00pm 33.6 31.0 13.1 29 12.4 ESE 19 32 10 17 1014.5 1013.9 0.0
19/11:30am 32.5 31.0 14.1 32 11.2 E 15 26 8 14 1015.2 1014.6 0.0
19/11:00am 31.1 31.2 17.4 44 8.7 E 13 20 7 11 1015.7 1015.1 0.0
19/10:30am 28.9 30.8 18.9 54 6.5 NE 7 15 4 8 1016.1 1015.6 0.0
19/10:00am 26.8 29.7 20.6 69 4.1 NNE 6 9 3 5 1016.1 1015.6 0.0
19/09:30am 24.8 28.0 21.3 81 2.3 SW 6 9 3 5 1015.9 1015.3 0.0
19/09:00am 23.8 27.3 21.9 89 1.3 SSW 6 9 3 5 1015.7 1015.1 0.0
19/08:30am 22.3 25.7 21.6 96 0.5 SSW 6 9 3 5 1015.3 1014.7 0.0
19/08:00am 22.4 26.2 21.7 96 0.5 WSW 4 7 2 4 1014.9 1014.3 0.0
19/07:30am 19.7 22.9 18.9 95 0.5 CALM 0 0 0 0 1014.5 1013.9 0.0
19/07:00am 19.0 21.7 17.8 93 0.7 CALM 0 0 0 0 1014.4 1013.8 0.0
19/06:30am 19.0 21.6 17.5 91 0.9 CALM 0 0 0 0 1014.2 1013.6 0.0
19/06:00am 19.7 22.8 18.7 94 0.6 CALM 0 0 0 0 1014.1 1013.5 0.0
19/05:30am 19.7 22.6 18.2 91 0.9 CALM 0 0 0 0 1013.9 1013.3 0.0
19/05:00am 20.3 23.6 19.1 93 0.8 CALM 0 0 0 0 1013.9 1013.3 0.0
19/04:30am 20.0 22.8 18.0 88 1.2 CALM 0 0 0 0 1013.8 1013.2 0.0
19/04:00am 20.2 23.1 18.1 88 1.3 CALM 0 0 0 0 1013.7 1013.1 0.0
19/03:30am 20.2 23.0 18.0 87 1.4 CALM 0 0 0 0 1013.9 1013.3 0.0
19/03:00am 20.7 23.7 18.5 87 1.4 CALM 0 0 0 0 1013.9 1013.3 0.0
19/02:30am 21.6 25.4 20.1 91 1.0 CALM 0 0 0 0 1014.0 1013.4 0.0
19/02:00am 21.5 24.8 19.2 87 1.5 CALM 0 0 0 0 1014.2 1013.6 0.0
19/01:30am 21.9 25.4 19.6 87 1.5 CALM 0 0 0 0 1014.2 1013.6 0.0
19/01:00am 22.2 26.0 20.1 88 1.4 CALM 0 0 0 0 1014.4 1013.8 0.0
19/12:30am 22.1 25.4 19.1 83 1.9 CALM 0 0 0 0 1014.7 1014.1 0.0
19/12:00am 22.9 26.8 20.4 86 1.6 CALM 0 0 0 0 1014.7 1014.1 0.0
 
Date/Time
CST
Temp
°C
App
Temp
°C
Dew
Point
°C
Rel
Hum
%
Delta-T
°C
Wind Press
QNH
hPa
Press
MSL
hPa
Rain since
9am
mm
Dir  Spd
km/h
Gust
km/h
Spd
kts
Gust
kts
18/11:30pm 23.4 27.2 20.2 82 2.1 CALM 0 0 0 0 1014.7 1014.1 0.0
18/11:00pm 23.8 27.7 20.3 81 2.3 CALM 0 0 0 0 1014.9 1014.3 0.0
18/10:30pm 24.8 29.0 20.9 79 2.6 CALM 0 2 0 1 1014.6 1014.0 0.0
18/10:00pm 25.2 28.8 21.3 79 2.6 WNW 4 4 2 2 1014.6 1014.0 0.0
18/09:30pm 25.7 29.4 21.4 77 2.9 WNW 4 6 2 3 1014.3 1013.7 0.0
18/09:00pm 26.2 29.4 21.6 76 3.1 WNW 7 11 4 6 1013.8 1013.2 0.0
18/08:30pm 26.8 29.7 21.8 74 3.4 WNW 9 15 5 8 1013.3 1012.7 0.0
18/08:00pm 27.5 30.3 21.5 70 4.0 WNW 9 17 5 9 1012.4 1011.9 0.0
18/07:30pm 28.8 29.6 19.1 55 6.3 NW 13 22 7 12 1011.8 1011.3 0.0
18/07:00pm 30.2 28.7 6.8 23 12.6 E 4 4 2 2 1011.1 1010.6 0.0
18/06:30pm 33.4 30.8 4.2 16 15.4 E 7 13 4 7 1010.6 1010.1 0.0
18/06:00pm 35.0 31.5 3.5 14 16.5 ESE 11 17 6 9 1010.3 1009.8 0.0
18/05:30pm 35.7 31.9 4.1 14 16.8 ESE 13 19 7 10 1010.0 1009.5 0.0
18/05:00pm 36.1 32.0 4.4 14 17.0 E 15 26 8 14 1009.7 1009.2 0.0
18/04:30pm 36.1 32.0 6.3 16 16.5 E 17 26 9 14 1009.7 1009.2 0.0
18/04:00pm 36.1 31.8 7.2 17 16.2 ESE 19 30 10 16 1009.6 1009.1 0.0
18/03:30pm 36.3 32.9 9.0 19 15.7 ESE 17 26 9 14 1009.8 1009.3 0.0
18/03:00pm 35.9 33.2 10.2 21 15.0 E 15 24 8 13 1010.2 1009.7 0.0
18/02:30pm 35.7 32.5 10.0 21 15.0 E 17 24 9 13 1010.5 1010.0 0.0
18/02:00pm 34.7 31.3 11.2 24 13.9 ESE 20 32 11 17 1011.1 1010.6 0.0
18/01:30pm 34.2 32.1 12.5 27 13.0 ESE 15 24 8 13 1011.6 1011.1 0.0
18/01:00pm 33.3 31.7 12.9 29 12.3 ESE 13 32 7 17 1012.1 1011.6 0.0
18/12:30pm 32.7 30.8 14.3 32 11.3 ESE 17 26 9 14 1012.8 1012.2 0.0
18/12:00pm 32.4 32.2 15.8 36 10.4 ENE 11 26 6 14 1013.5 1012.9 0.0
18/11:30am 31.1 30.5 16.7 42 9.1 E 15 24 8 13 1014.1 1013.5 0.0
18/11:00am 30.3 31.7 17.7 46 8.1 NE 7 20 4 11 1014.5 1013.9 0.0
18/10:30am 29.7 32.0 19.4 54 6.7 ENE 6 9 3 5 1014.9 1014.3 0.0

Latest Capital City Observations: Canberra | Sydney | Melbourne | Brisbane | Adelaide | Perth | Hobart | Darwin

Other Formats:

Comma delimited format used in spreadsheet applications
http://www.bom.gov.au/fwo/IDD60901/IDD60901.94125.axf

JavaScript Object Notation format (JSON) in row-major order
http://www.bom.gov.au/fwo/IDD60901/IDD60901.94125.json